sensor_id;sensor_type;location;lat;lon;timestamp;pressure;altitude;pressure_sealevel;temperature;humidity
19736;BME280;32064;49.310;8.646;2023-08-01T00:01:02;99420.84;;;22.46;80.06
19736;BME280;32064;49.310;8.646;2023-08-01T00:03:28;99405.56;;;22.46;79.54
19736;BME280;32064;49.310;8.646;2023-08-01T00:05:53;99404.94;;;22.44;79.85
19736;BME280;32064;49.310;8.646;2023-08-01T00:08:20;99396.72;;;22.39;80.90
19736;BME280;32064;49.310;8.646;2023-08-01T00:10:45;99385.41;;;22.37;80.68
19736;BME280;32064;49.310;8.646;2023-08-01T00:13:11;99375.69;;;22.36;80.47
19736;BME280;32064;49.310;8.646;2023-08-01T00:15:37;99351.41;;;22.31;80.92
19736;BME280;32064;49.310;8.646;2023-08-01T00:18:02;99348.91;;;22.29;81.41
19736;BME280;32064;49.310;8.646;2023-08-01T00:20:28;99343.16;;;22.26;80.73
19736;BME280;32064;49.310;8.646;2023-08-01T00:22:53;99353.25;;;22.24;81.07
19736;BME280;32064;49.310;8.646;2023-08-01T00:25:19;99334.50;;;22.24;80.75
19736;BME280;32064;49.310;8.646;2023-08-01T00:27:45;99325.63;;;22.23;81.51
19736;BME280;32064;49.310;8.646;2023-08-01T00:30:10;99316.16;;;22.21;82.01
19736;BME280;32064;49.310;8.646;2023-08-01T00:32:37;99304.41;;;22.22;82.00
19736;BME280;32064;49.310;8.646;2023-08-01T00:35:03;99296.13;;;22.16;81.37
19736;BME280;32064;49.310;8.646;2023-08-01T00:37:29;99285.81;;;22.13;82.36
19736;BME280;32064;49.310;8.646;2023-08-01T00:39:54;99279.88;;;22.05;82.78
19736;BME280;32064;49.310;8.646;2023-08-01T00:42:19;99281.97;;;22.03;82.07
19736;BME280;32064;49.310;8.646;2023-08-01T00:44:45;99275.38;;;22.05;82.63
19736;BME280;32064;49.310;8.646;2023-08-01T00:47:13;99274.94;;;22.08;81.86
19736;BME280;32064;49.310;8.646;2023-08-01T00:49:39;99263.19;;;22.09;82.12
19736;BME280;32064;49.310;8.646;2023-08-01T00:52:05;99268.94;;;22.13;83.37
19736;BME280;32064;49.310;8.646;2023-08-01T00:54:31;99274.72;;;22.10;82.53
19736;BME280;32064;49.310;8.646;2023-08-01T00:57:02;99273.91;;;22.09;83.02
19736;BME280;32064;49.310;8.646;2023-08-01T00:59:28;99277.41;;;22.10;82.81
19736;BME280;32064;49.310;8.646;2023-08-01T01:01:53;99278.03;;;22.12;82.88
19736;BME280;32064;49.310;8.646;2023-08-01T01:04:18;99270.78;;;22.12;82.60
19736;BME280;32064;49.310;8.646;2023-08-01T01:07:06;99265.88;;;22.09;83.42
19736;BME280;32064;49.310;8.646;2023-08-01T01:09:32;99266.06;;;22.14;83.10
19736;BME280;32064;49.310;8.646;2023-08-01T01:12:00;99268.13;;;22.12;83.37
19736;BME280;32064;49.310;8.646;2023-08-01T01:14:26;99267.31;;;22.12;83.08
19736;BME280;32064;49.310;8.646;2023-08-01T01:16:52;99262.38;;;22.09;83.88
19736;BME280;32064;49.310;8.646;2023-08-01T01:19:17;99258.06;;;22.01;84.22
19736;BME280;32064;49.310;8.646;2023-08-01T01:21:43;99242.41;;;21.98;83.25
19736;BME280;32064;49.310;8.646;2023-08-01T01:24:10;99225.13;;;21.94;84.25
19736;BME280;32064;49.310;8.646;2023-08-01T01:26:37;99218.53;;;21.90;83.26
19736;BME280;32064;49.310;8.646;2023-08-01T01:29:04;99224.28;;;21.93;84.08
19736;BME280;32064;49.310;8.646;2023-08-01T01:31:32;99226.75;;;21.95;83.52
19736;BME280;32064;49.310;8.646;2023-08-01T01:33:57;99222.00;;;21.90;83.29
19736;BME280;32064;49.310;8.646;2023-08-01T01:36:23;99207.81;;;21.90;83.78
19736;BME280;32064;49.310;8.646;2023-08-01T01:38:49;99191.13;;;21.88;83.85
19736;BME280;32064;49.310;8.646;2023-08-01T01:41:15;99196.91;;;21.91;83.61
19736;BME280;32064;49.310;8.646;2023-08-01T01:43:40;99202.84;;;21.93;84.10
19736;BME280;32064;49.310;8.646;2023-08-01T01:46:06;99203.69;;;21.94;84.48
19736;BME280;32064;49.310;8.646;2023-08-01T01:48:31;99209.88;;;21.94;84.20
19736;BME280;32064;49.310;8.646;2023-08-01T01:50:57;99220.78;;;21.93;83.47
19736;BME280;32064;49.310;8.646;2023-08-01T01:53:22;99222.44;;;21.94;83.99
19736;BME280;32064;49.310;8.646;2023-08-01T01:55:47;99223.03;;;21.96;84.27
19736;BME280;32064;49.310;8.646;2023-08-01T01:58:13;99218.72;;;21.95;85.27
19736;BME280;32064;49.310;8.646;2023-08-01T02:00:38;99220.34;;;21.96;84.59
19736;BME280;32064;49.310;8.646;2023-08-01T02:03:04;99232.72;;;21.97;85.35
19736;BME280;32064;49.310;8.646;2023-08-01T02:05:30;99214.19;;;21.95;84.83
19736;BME280;32064;49.310;8.646;2023-08-01T02:07:55;99206.75;;;21.97;84.31
19736;BME280;32064;49.310;8.646;2023-08-01T02:10:21;99208.63;;;21.97;84.87
19736;BME280;32064;49.310;8.646;2023-08-01T02:12:46;99202.41;;;21.96;84.55
19736;BME280;32064;49.310;8.646;2023-08-01T02:15:11;99201.59;;;21.96;84.65
19736;BME280;32064;49.310;8.646;2023-08-01T02:17:37;99187.63;;;21.94;84.44
19736;BME280;32064;49.310;8.646;2023-08-01T02:20:02;99194.00;;;21.93;84.42
19736;BME280;32064;49.310;8.646;2023-08-01T02:22:28;99185.97;;;21.93;85.14
19736;BME280;32064;49.310;8.646;2023-08-01T02:24:53;99179.78;;;21.92;84.58
19736;BME280;32064;49.310;8.646;2023-08-01T02:27:19;99183.50;;;21.91;85.01
19736;BME280;32064;49.310;8.646;2023-08-01T02:29:44;99179.16;;;21.90;84.98
19736;BME280;32064;49.310;8.646;2023-08-01T02:32:09;99176.72;;;21.89;85.86
19736;BME280;32064;49.310;8.646;2023-08-01T02:34:35;99172.78;;;21.91;85.20
19736;BME280;32064;49.310;8.646;2023-08-01T02:37:00;99174.44;;;21.92;85.27
19736;BME280;32064;49.310;8.646;2023-08-01T02:39:26;99179.78;;;21.92;85.79
19736;BME280;32064;49.310;8.646;2023-08-01T02:41:51;99166.38;;;21.92;84.88
19736;BME280;32064;49.310;8.646;2023-08-01T02:44:16;99162.50;;;21.88;85.29
19736;BME280;32064;49.310;8.646;2023-08-01T02:46:42;99164.34;;;21.88;85.52
19736;BME280;32064;49.310;8.646;2023-08-01T02:49:07;99167.63;;;21.90;85.29
19736;BME280;32064;49.310;8.646;2023-08-01T02:51:33;99167.63;;;21.90;86.22
19736;BME280;32064;49.310;8.646;2023-08-01T02:53:58;99152.59;;;21.89;85.84
19736;BME280;32064;49.310;8.646;2023-08-01T02:56:23;99159.41;;;21.91;86.21
19736;BME280;32064;49.310;8.646;2023-08-01T02:58:49;99154.25;;;21.90;86.32
19736;BME280;32064;49.310;8.646;2023-08-01T03:01:17;99159.16;;;21.93;85.93
19736;BME280;32064;49.310;8.646;2023-08-01T03:03:42;99147.44;;;21.94;85.82
19736;BME280;32064;49.310;8.646;2023-08-01T03:06:08;99141.25;;;21.93;85.62
19736;BME280;32064;49.310;8.646;2023-08-01T03:08:33;99117.97;;;21.94;85.89
19736;BME280;32064;49.310;8.646;2023-08-01T03:11:00;99117.97;;;21.94;85.56
19736;BME280;32064;49.310;8.646;2023-08-01T03:13:25;99137.75;;;21.93;85.87
19736;BME280;32064;49.310;8.646;2023-08-01T03:15:51;99144.75;;;21.94;85.15
19736;BME280;32064;49.310;8.646;2023-08-01T03:18:16;99160.22;;;21.92;85.56
19736;BME280;32064;49.310;8.646;2023-08-01T03:20:42;99155.88;;;21.91;85.18
19736;BME280;32064;49.310;8.646;2023-08-01T03:23:07;99155.69;;;21.92;85.89
19736;BME280;32064;49.310;8.646;2023-08-01T03:25:32;99161.84;;;21.93;85.50
19736;BME280;32064;49.310;8.646;2023-08-01T03:27:58;99160.84;;;21.94;86.22
19736;BME280;32064;49.310;8.646;2023-08-01T03:30:23;99171.31;;;21.95;86.79
19736;BME280;32064;49.310;8.646;2023-08-01T03:32:49;99176.06;;;21.93;86.16
19736;BME280;32064;49.310;8.646;2023-08-01T03:35:14;99175.03;;;21.94;86.17
19736;BME280;32064;49.310;8.646;2023-08-01T03:37:40;99164.09;;;21.96;85.95
19736;BME280;32064;49.310;8.646;2023-08-01T03:40:06;99171.31;;;21.95;86.26
19736;BME280;32064;49.310;8.646;2023-08-01T03:42:36;99166.78;;;21.96;85.46
19736;BME280;32064;49.310;8.646;2023-08-01T03:45:01;99162.25;;;21.96;85.77
19736;BME280;32064;49.310;8.646;2023-08-01T03:47:27;99158.97;;;21.94;85.93
19736;BME280;32064;49.310;8.646;2023-08-01T03:49:52;99150.13;;;21.94;86.22
19736;BME280;32064;49.310;8.646;2023-08-01T03:52:17;99145.16;;;21.91;86.46
19736;BME280;32064;49.310;8.646;2023-08-01T03:54:43;99129.31;;;21.89;85.67
19736;BME280;32064;49.310;8.646;2023-08-01T03:57:08;99133.88;;;21.89;86.10
19736;BME280;32064;49.310;8.646;2023-08-01T03:59:33;99127.47;;;21.90;86.73
19736;BME280;32064;49.310;8.646;2023-08-01T04:01:59;99118.81;;;21.88;86.79
19736;BME280;32064;49.310;8.646;2023-08-01T04:04:24;99119.66;;;21.88;85.86
19736;BME280;32064;49.310;8.646;2023-08-01T04:06:49;99119.84;;;21.87;86.33
19736;BME280;32064;49.310;8.646;2023-08-01T04:09:15;99121.72;;;21.86;86.18
19736;BME280;32064;49.310;8.646;2023-08-01T04:11:40;99119.84;;;21.87;86.89
19736;BME280;32064;49.310;8.646;2023-08-01T04:14:06;99113.88;;;21.85;86.12
19736;BME280;32064;49.310;8.646;2023-08-01T04:16:31;99094.31;;;21.84;86.89
19736;BME280;32064;49.310;8.646;2023-08-01T04:18:56;99114.94;;;21.84;86.29
19736;BME280;32064;49.310;8.646;2023-08-01T04:21:22;99109.34;;;21.85;86.81
19736;BME280;32064;49.310;8.646;2023-08-01T04:23:47;99119.03;;;21.86;86.85
19736;BME280;32064;49.310;8.646;2023-08-01T04:26:13;99124.41;;;21.86;86.53
19736;BME280;32064;49.310;8.646;2023-08-01T04:28:38;99119.84;;;21.87;86.92
19736;BME280;32064;49.310;8.646;2023-08-01T04:31:03;99111.81;;;21.87;86.51
19736;BME280;32064;49.310;8.646;2023-08-01T04:33:29;99118.81;;;21.88;86.75
19736;BME280;32064;49.310;8.646;2023-08-01T04:35:54;99101.91;;;21.87;87.23
19736;BME280;32064;49.310;8.646;2023-08-01T04:38:20;99095.75;;;21.87;86.39
19736;BME280;32064;49.310;8.646;2023-08-01T04:40:45;99109.56;;;21.84;86.31
19736;BME280;32064;49.310;8.646;2023-08-01T04:43:11;99112.25;;;21.84;86.24
19736;BME280;32064;49.310;8.646;2023-08-01T04:45:37;99112.03;;;21.85;86.29
19736;BME280;32064;49.310;8.646;2023-08-01T04:48:02;99106.66;;;21.85;86.37
19736;BME280;32064;49.310;8.646;2023-08-01T04:50:28;99105.66;;;21.86;86.65
19736;BME280;32064;49.310;8.646;2023-08-01T04:52:53;99100.28;;;21.86;87.48
19736;BME280;32064;49.310;8.646;2023-08-01T04:55:19;99097.63;;;21.86;87.06
19736;BME280;32064;49.310;8.646;2023-08-01T04:57:44;99102.16;;;21.86;87.75
19736;BME280;32064;49.310;8.646;2023-08-01T05:00:10;99108.53;;;21.85;87.43
19736;BME280;32064;49.310;8.646;2023-08-01T05:02:36;99113.69;;;21.86;87.36
19736;BME280;32064;49.310;8.646;2023-08-01T05:05:01;99113.88;;;21.85;87.76
19736;BME280;32064;49.310;8.646;2023-08-01T05:07:26;99097.63;;;21.86;87.27
19736;BME280;32064;49.310;8.646;2023-08-01T05:09:52;99086.91;;;21.86;87.48
19736;BME280;32064;49.310;8.646;2023-08-01T05:12:17;99097.63;;;21.86;87.52
19736;BME280;32064;49.310;8.646;2023-08-01T05:14:43;99102.97;;;21.86;87.47
19736;BME280;32064;49.310;8.646;2023-08-01T05:17:08;99113.88;;;21.85;88.10
19736;BME280;32064;49.310;8.646;2023-08-01T05:19:33;99110.38;;;21.84;87.30
19736;BME280;32064;49.310;8.646;2023-08-01T05:21:59;99108.75;;;21.83;87.37
19736;BME280;32064;49.310;8.646;2023-08-01T05:24:24;99104.41;;;21.82;87.51
19736;BME280;32064;49.310;8.646;2023-08-01T05:26:49;99109.78;;;21.82;87.41
19736;BME280;32064;49.310;8.646;2023-08-01T05:29:15;99111.63;;;21.82;87.96
19736;BME280;32064;49.310;8.646;2023-08-01T05:31:40;99099.06;;;21.82;88.18
19736;BME280;32064;49.310;8.646;2023-08-01T05:34:06;99107.09;;;21.82;88.53
19736;BME280;32064;49.310;8.646;2023-08-01T05:36:31;99108.13;;;21.81;87.72
19736;BME280;32064;49.310;8.646;2023-08-01T05:38:56;99101.97;;;21.81;87.99
19736;BME280;32064;49.310;8.646;2023-08-01T05:41:22;99133.28;;;21.80;88.48
19736;BME280;32064;49.310;8.646;2023-08-01T05:43:48;99121.13;;;21.78;88.26
19736;BME280;32064;49.310;8.646;2023-08-01T05:46:14;99114.13;;;21.77;88.27
19736;BME280;32064;49.310;8.646;2023-08-01T05:48:40;99110.22;;;21.72;87.61
19736;BME280;32064;49.310;8.646;2023-08-01T05:51:05;99118.69;;;21.69;88.10
19736;BME280;32064;49.310;8.646;2023-08-01T05:53:30;99097.47;;;21.68;88.22
19736;BME280;32064;49.310;8.646;2023-08-01T05:55:56;99104.91;;;21.66;88.02
19736;BME280;32064;49.310;8.646;2023-08-01T05:58:21;99102.66;;;21.63;87.77
19736;BME280;32064;49.310;8.646;2023-08-01T06:00:47;99114.38;;;21.62;87.69
19736;BME280;32064;49.310;8.646;2023-08-01T06:03:12;99118.09;;;21.54;87.48
19736;BME280;32064;49.310;8.646;2023-08-01T06:05:38;99114.22;;;21.50;87.63
19736;BME280;32064;49.310;8.646;2023-08-01T06:08:06;99124.53;;;21.46;87.67
19736;BME280;32064;49.310;8.646;2023-08-01T06:10:32;99126.38;;;21.46;87.42
19736;BME280;32064;49.310;8.646;2023-08-01T06:12:57;99128.66;;;21.42;87.42
19736;BME280;32064;49.310;8.646;2023-08-01T06:15:23;99128.88;;;21.41;86.93
19736;BME280;32064;49.310;8.646;2023-08-01T06:17:48;99128.25;;;21.39;87.62
19736;BME280;32064;49.310;8.646;2023-08-01T06:20:13;99121.25;;;21.38;87.95
19736;BME280;32064;49.310;8.646;2023-08-01T06:22:39;99110.56;;;21.38;88.62
19736;BME280;32064;49.310;8.646;2023-08-01T06:25:04;99112.19;;;21.39;88.22
19736;BME280;32064;49.310;8.646;2023-08-01T06:27:30;99099.63;;;21.39;88.37
19736;BME280;32064;49.310;8.646;2023-08-01T06:29:55;99109.09;;;21.42;88.55
19736;BME280;32064;49.310;8.646;2023-08-01T06:32:21;99100.44;;;21.40;88.65
19736;BME280;32064;49.310;8.646;2023-08-01T06:34:46;99087.69;;;21.42;88.03
19736;BME280;32064;49.310;8.646;2023-08-01T06:37:11;99097.75;;;21.40;88.84
19736;BME280;32064;49.310;8.646;2023-08-01T06:39:37;99101.88;;;21.42;88.82
19736;BME280;32064;49.310;8.646;2023-08-01T06:42:02;99102.91;;;21.41;88.53
19736;BME280;32064;49.310;8.646;2023-08-01T06:44:28;99095.50;;;21.43;88.57
19736;BME280;32064;49.310;8.646;2023-08-01T06:46:53;99104.38;;;21.44;88.86
19736;BME280;32064;49.310;8.646;2023-08-01T06:49:19;99110.94;;;21.41;88.14
19736;BME280;32064;49.310;8.646;2023-08-01T06:51:44;99117.34;;;21.40;88.69
19736;BME280;32064;49.310;8.646;2023-08-01T06:54:09;99119.81;;;21.42;88.80
19736;BME280;32064;49.310;8.646;2023-08-01T06:56:35;99108.91;;;21.43;88.74
19736;BME280;32064;49.310;8.646;2023-08-01T06:59:00;99101.88;;;21.42;89.41
19736;BME280;32064;49.310;8.646;2023-08-01T07:01:26;99090.78;;;21.39;89.51
19736;BME280;32064;49.310;8.646;2023-08-01T07:03:51;99097.75;;;21.40;89.53
19736;BME280;32064;49.310;8.646;2023-08-01T07:06:18;99101.06;;;21.42;89.58
19736;BME280;32064;49.310;8.646;2023-08-01T07:08:43;99104.38;;;21.44;89.93
19736;BME280;32064;49.310;8.646;2023-08-01T07:11:09;99104.38;;;21.44;89.50
19736;BME280;32064;49.310;8.646;2023-08-01T07:13:34;99111.97;;;21.47;89.49
19736;BME280;32064;49.310;8.646;2023-08-01T07:16:00;99111.16;;;21.46;89.75
19736;BME280;32064;49.310;8.646;2023-08-01T07:18:25;99102.06;;;21.47;89.76
19736;BME280;32064;49.310;8.646;2023-08-01T07:21:04;99111.16;;;21.46;90.22
19736;BME280;32064;49.310;8.646;2023-08-01T07:23:30;99109.69;;;21.50;89.90
19736;BME280;32064;49.310;8.646;2023-08-01T07:25:56;99105.38;;;21.49;90.05
19736;BME280;32064;49.310;8.646;2023-08-01T07:28:22;99112.34;;;21.50;89.62
19736;BME280;32064;49.310;8.646;2023-08-01T07:30:47;99105.56;;;21.48;89.71
19736;BME280;32064;49.310;8.646;2023-08-01T07:33:12;99110.50;;;21.51;90.46
19736;BME280;32064;49.310;8.646;2023-08-01T07:35:38;99109.25;;;21.53;90.36
19736;BME280;32064;49.310;8.646;2023-08-01T07:38:03;99099.59;;;21.52;90.33
19736;BME280;32064;49.310;8.646;2023-08-01T07:40:29;99106.59;;;21.53;90.21
19736;BME280;32064;49.310;8.646;2023-08-01T07:42:54;99111.94;;;21.53;90.56
19736;BME280;32064;49.310;8.646;2023-08-01T07:45:19;99100.22;;;21.55;90.53
19736;BME280;32064;49.310;8.646;2023-08-01T07:47:45;99108.41;;;21.60;90.55
19736;BME280;32064;49.310;8.646;2023-08-01T07:50:10;99108.63;;;21.58;91.55
19736;BME280;32064;49.310;8.646;2023-08-01T07:52:36;99106.34;;;21.62;90.89
19736;BME280;32064;49.310;8.646;2023-08-01T07:55:01;99115.44;;;21.61;91.25
19736;BME280;32064;49.310;8.646;2023-08-01T07:57:27;99122.81;;;21.65;90.97
19736;BME280;32064;49.310;8.646;2023-08-01T07:59:52;99119.13;;;21.66;90.92
19736;BME280;32064;49.310;8.646;2023-08-01T08:02:18;99116.22;;;21.68;90.82
19736;BME280;32064;49.310;8.646;2023-08-01T08:04:43;99113.53;;;21.68;90.66
19736;BME280;32064;49.310;8.646;2023-08-01T08:07:09;99119.31;;;21.71;91.29
19736;BME280;32064;49.310;8.646;2023-08-01T08:09:34;99115.97;;;21.76;91.48
19736;BME280;32064;49.310;8.646;2023-08-01T08:11:59;99116.38;;;21.80;91.92
19736;BME280;32064;49.310;8.646;2023-08-01T08:14:25;99119.03;;;21.86;92.19
19736;BME280;32064;49.310;8.646;2023-08-01T08:16:51;99126.41;;;21.91;92.01
19736;BME280;32064;49.310;8.646;2023-08-01T08:19:16;99128.69;;;21.94;91.33
19736;BME280;32064;49.310;8.646;2023-08-01T08:21:42;99112.97;;;22.04;91.47
19736;BME280;32064;49.310;8.646;2023-08-01T08:24:08;99124.28;;;22.19;92.66
19736;BME280;32064;49.310;8.646;2023-08-01T08:26:33;99128.28;;;22.35;92.25
19736;BME280;32064;49.310;8.646;2023-08-01T08:29:03;99121.78;;;22.50;92.46
19736;BME280;32064;49.310;8.646;2023-08-01T08:31:30;99127.28;;;22.61;91.58
19736;BME280;32064;49.310;8.646;2023-08-01T08:33:55;99133.38;;;22.75;91.90
19736;BME280;32064;49.310;8.646;2023-08-01T08:36:21;99134.31;;;22.88;91.18
19736;BME280;32064;49.310;8.646;2023-08-01T08:38:46;99137.31;;;23.04;90.57
19736;BME280;32064;49.310;8.646;2023-08-01T08:41:19;99142.31;;;23.19;91.14
19736;BME280;32064;49.310;8.646;2023-08-01T08:43:48;99148.81;;;23.30;90.14
19736;BME280;32064;49.310;8.646;2023-08-01T08:46:15;99146.88;;;23.37;90.52
19736;BME280;32064;49.310;8.646;2023-08-01T08:48:42;99145.63;;;23.40;88.99
19736;BME280;32064;49.310;8.646;2023-08-01T08:51:07;99148.91;;;23.42;88.91
19736;BME280;32064;49.310;8.646;2023-08-01T08:53:35;99155.84;;;23.49;88.46
19736;BME280;32064;49.310;8.646;2023-08-01T08:56:01;99154.53;;;23.59;88.38
19736;BME280;32064;49.310;8.646;2023-08-01T08:58:29;99154.88;;;23.62;87.46
19736;BME280;32064;49.310;8.646;2023-08-01T09:00:56;99148.84;;;23.67;87.60
19736;BME280;32064;49.310;8.646;2023-08-01T09:03:22;99146.56;;;23.70;87.17
19736;BME280;32064;49.310;8.646;2023-08-01T09:05:56;99158.94;;;23.71;87.12
19736;BME280;32064;49.310;8.646;2023-08-01T09:08:25;99140.66;;;23.80;87.15
19736;BME280;32064;49.310;8.646;2023-08-01T09:10:52;99157.50;;;24.06;87.14
19736;BME280;32064;49.310;8.646;2023-08-01T09:13:18;99160.19;;;24.36;85.43
19736;BME280;32064;49.310;8.646;2023-08-01T09:15:43;99152.25;;;24.71;84.78
19736;BME280;32064;49.310;8.646;2023-08-01T09:18:10;99156.16;;;25.10;84.07
19736;BME280;32064;49.310;8.646;2023-08-01T09:20:43;99150.38;;;25.37;83.20
19736;BME280;32064;49.310;8.646;2023-08-01T09:23:09;99157.47;;;25.55;80.94
19736;BME280;32064;49.310;8.646;2023-08-01T09:25:36;99155.13;;;25.70;80.35
19736;BME280;32064;49.310;8.646;2023-08-01T09:28:01;99159.91;;;25.80;78.90
19736;BME280;32064;49.310;8.646;2023-08-01T09:30:27;99160.47;;;25.94;79.20
19736;BME280;32064;49.310;8.646;2023-08-01T09:32:56;99154.34;;;25.98;78.11
19736;BME280;32064;49.310;8.646;2023-08-01T09:35:24;99159.53;;;26.00;77.69
19736;BME280;32064;49.310;8.646;2023-08-01T09:37:50;99161.88;;;25.96;76.47
19736;BME280;32064;49.310;8.646;2023-08-01T09:40:15;99154.47;;;26.04;76.50
19736;BME280;32064;49.310;8.646;2023-08-01T09:42:42;99155.97;;;26.11;76.35
19736;BME280;32064;49.310;8.646;2023-08-01T09:45:15;99161.13;;;26.13;75.03
19736;BME280;32064;49.310;8.646;2023-08-01T09:47:44;99177.22;;;26.08;74.89
19736;BME280;32064;49.310;8.646;2023-08-01T09:50:12;99177.00;;;25.97;74.68
19736;BME280;32064;49.310;8.646;2023-08-01T09:52:45;99174.34;;;25.86;73.74
19736;BME280;32064;49.310;8.646;2023-08-01T09:55:18;99181.00;;;25.71;73.42
19736;BME280;32064;49.310;8.646;2023-08-01T09:57:45;99170.22;;;25.71;74.15
19736;BME280;32064;49.310;8.646;2023-08-01T10:00:14;99161.19;;;25.89;74.23
19736;BME280;32064;49.310;8.646;2023-08-01T10:02:42;99167.03;;;25.98;74.50
19736;BME280;32064;49.310;8.646;2023-08-01T10:05:08;99168.44;;;26.01;74.04
19736;BME280;32064;49.310;8.646;2023-08-01T10:07:38;99174.88;;;26.00;73.36
19736;BME280;32064;49.310;8.646;2023-08-01T10:10:04;99174.78;;;25.94;72.64
19736;BME280;32064;49.310;8.646;2023-08-01T10:12:31;99176.66;;;25.94;71.77
19736;BME280;32064;49.310;8.646;2023-08-01T10:14:57;99177.59;;;26.00;70.80
19736;BME280;32064;49.310;8.646;2023-08-01T10:17:23;99170.81;;;26.26;67.44
19736;BME280;32064;49.310;8.646;2023-08-01T10:19:50;99167.16;;;26.60;67.69
19736;BME280;32064;49.310;8.646;2023-08-01T10:22:20;99176.03;;;27.06;66.73
19736;BME280;32064;49.310;8.646;2023-08-01T10:24:46;99168.06;;;27.50;65.15
19736;BME280;32064;49.310;8.646;2023-08-01T10:27:20;99182.00;;;27.81;62.36
19736;BME280;32064;49.310;8.646;2023-08-01T10:30:00;99178.06;;;27.89;59.45
19736;BME280;32064;49.310;8.646;2023-08-01T10:32:31;99180.69;;;27.84;58.75
19736;BME280;32064;49.310;8.646;2023-08-01T10:34:57;99187.81;;;27.73;58.92
19736;BME280;32064;49.310;8.646;2023-08-01T10:37:23;99181.75;;;27.83;60.25
19736;BME280;32064;49.310;8.646;2023-08-01T10:39:59;99187.38;;;27.98;59.38
19736;BME280;32064;49.310;8.646;2023-08-01T10:42:26;99177.72;;;28.07;58.81
19736;BME280;32064;49.310;8.646;2023-08-01T10:44:51;99178.94;;;27.94;57.88
19736;BME280;32064;49.310;8.646;2023-08-01T10:47:26;99187.59;;;27.96;56.81
19736;BME280;32064;49.310;8.646;2023-08-01T10:49:52;99175.47;;;28.21;58.11
19736;BME280;32064;49.310;8.646;2023-08-01T10:54:45;99183.72;;;28.85;56.51
19736;BME280;32064;49.310;8.646;2023-08-01T10:57:15;99181.00;;;29.18;53.50
19736;BME280;32064;49.310;8.646;2023-08-01T10:59:43;99182.31;;;29.52;53.42
19736;BME280;32064;49.310;8.646;2023-08-01T11:02:08;99175.75;;;29.91;52.07
19736;BME280;32064;49.310;8.646;2023-08-01T11:04:34;99173.44;;;30.25;52.08
19736;BME280;32064;49.310;8.646;2023-08-01T11:06:59;99193.34;;;30.61;49.66
19736;BME280;32064;49.310;8.646;2023-08-01T11:09:26;99179.78;;;30.77;49.05
19736;BME280;32064;49.310;8.646;2023-08-01T11:11:55;99181.44;;;30.78;47.97
19736;BME280;32064;49.310;8.646;2023-08-01T11:14:28;99178.66;;;30.47;46.57
19736;BME280;32064;49.310;8.646;2023-08-01T11:16:55;99184.88;;;30.27;47.52
19736;BME280;32064;49.310;8.646;2023-08-01T11:19:26;99184.06;;;30.27;48.25
19736;BME280;32064;49.310;8.646;2023-08-01T11:21:52;99190.78;;;30.19;47.56
19736;BME280;32064;49.310;8.646;2023-08-01T11:24:19;99200.59;;;30.25;47.23
19736;BME280;32064;49.310;8.646;2023-08-01T11:26:48;99195.31;;;30.03;47.47
19736;BME280;32064;49.310;8.646;2023-08-01T11:29:14;99214.50;;;29.81;47.01
19736;BME280;32064;49.310;8.646;2023-08-01T11:31:41;99216.19;;;29.50;47.61
19736;BME280;32064;49.310;8.646;2023-08-01T11:34:08;99202.53;;;29.35;48.37
19736;BME280;32064;49.310;8.646;2023-08-01T11:36:35;99206.31;;;29.34;48.54
19736;BME280;32064;49.310;8.646;2023-08-01T11:39:01;99214.81;;;29.47;48.15
19736;BME280;32064;49.310;8.646;2023-08-01T11:41:27;99209.28;;;29.64;48.10
19736;BME280;32064;49.310;8.646;2023-08-01T11:43:53;99218.56;;;29.84;47.37
19736;BME280;32064;49.310;8.646;2023-08-01T11:46:20;99213.78;;;30.01;46.85
19736;BME280;32064;49.310;8.646;2023-08-01T11:48:47;99230.03;;;29.96;46.28
19736;BME280;32064;49.310;8.646;2023-08-01T11:51:13;99226.19;;;29.92;45.33
19736;BME280;32064;49.310;8.646;2023-08-01T11:53:38;99235.41;;;29.86;45.05
19736;BME280;32064;49.310;8.646;2023-08-01T11:56:07;99231.88;;;29.85;45.33
19736;BME280;32064;49.310;8.646;2023-08-01T11:58:40;99231.28;;;29.73;45.32
19736;BME280;32064;49.310;8.646;2023-08-01T12:01:11;99233.03;;;29.57;44.95
19736;BME280;32064;49.310;8.646;2023-08-01T12:06:12;99227.84;;;29.50;45.36
19736;BME280;32064;49.310;8.646;2023-08-01T12:08:40;99229.75;;;29.50;45.68
19736;BME280;32064;49.310;8.646;2023-08-01T12:11:06;99237.91;;;29.55;45.49
19736;BME280;32064;49.310;8.646;2023-08-01T12:13:42;99231.47;;;29.61;45.48
19736;BME280;32064;49.310;8.646;2023-08-01T12:16:07;99241.81;;;29.64;44.68
19736;BME280;32064;49.310;8.646;2023-08-01T12:18:32;99238.56;;;29.67;44.65
19736;BME280;32064;49.310;8.646;2023-08-01T12:20:58;99240.66;;;29.60;44.58
19736;BME280;32064;49.310;8.646;2023-08-01T12:23:23;99241.97;;;29.58;44.46
19736;BME280;32064;49.310;8.646;2023-08-01T12:25:49;99243.88;;;29.57;44.09
19736;BME280;32064;49.310;8.646;2023-08-01T12:28:15;99240.84;;;29.48;44.00
19736;BME280;32064;49.310;8.646;2023-08-01T12:30:41;99236.75;;;29.46;44.33
19736;BME280;32064;49.310;8.646;2023-08-01T12:33:07;99235.19;;;29.50;44.95
19736;BME280;32064;49.310;8.646;2023-08-01T12:35:33;99241.66;;;29.49;44.53
19736;BME280;32064;49.310;8.646;2023-08-01T12:37:58;99239.75;;;29.49;44.76
19736;BME280;32064;49.310;8.646;2023-08-01T12:40:24;99243.59;;;29.53;45.03
19736;BME280;32064;49.310;8.646;2023-08-01T12:42:49;99243.88;;;29.57;44.67
19736;BME280;32064;49.310;8.646;2023-08-01T12:45:15;99247.41;;;29.58;45.31
19736;BME280;32064;49.310;8.646;2023-08-01T12:47:43;99241.41;;;29.50;43.95
19736;BME280;32064;49.310;8.646;2023-08-01T12:50:09;99243.56;;;29.48;45.10
19736;BME280;32064;49.310;8.646;2023-08-01T12:52:34;99245.16;;;29.44;44.21
19736;BME280;32064;49.310;8.646;2023-08-01T12:55:00;99242.13;;;29.41;44.93
19736;BME280;32064;49.310;8.646;2023-08-01T12:57:25;99244.56;;;29.37;43.79
19736;BME280;32064;49.310;8.646;2023-08-01T12:59:50;99241.03;;;29.37;44.18